sensor_id;sensor_type;location;lat;lon;timestamp;pressure;altitude;pressure_sealevel;temperature;humidity
48204;BME280;33994;50.998;5.864;2022-07-29T00:01:42;101020.19;;;19.04;52.49
48204;BME280;33994;50.998;5.864;2022-07-29T00:04:47;101020.25;;;19.03;52.41
48204;BME280;33994;50.998;5.864;2022-07-29T00:07:51;101019.38;;;19.02;52.49
48204;BME280;33994;50.998;5.864;2022-07-29T00:10:56;101010.78;;;18.97;52.33
48204;BME280;33994;50.998;5.864;2022-07-29T00:14:00;101016.25;;;18.94;52.42
48204;BME280;33994;50.998;5.864;2022-07-29T00:17:04;101015.38;;;18.93;52.55
48204;BME280;33994;50.998;5.864;2022-07-29T00:20:09;101030.28;;;18.96;52.50
48204;BME280;33994;50.998;5.864;2022-07-29T00:23:14;101039.00;;;18.98;52.36
48204;BME280;33994;50.998;5.864;2022-07-29T00:26:18;101052.34;;;18.96;52.44
48204;BME280;33994;50.998;5.864;2022-07-29T00:29:23;101059.50;;;18.94;52.43
48204;BME280;33994;50.998;5.864;2022-07-29T00:32:27;101048.13;;;18.92;53.19
48204;BME280;33994;50.998;5.864;2022-07-29T00:35:31;101037.88;;;18.85;53.87
48204;BME280;33994;50.998;5.864;2022-07-29T00:38:51;101018.53;;;18.83;54.25
48204;BME280;33994;50.998;5.864;2022-07-29T00:41:55;101017.09;;;18.76;54.75
48204;BME280;33994;50.998;5.864;2022-07-29T00:45:00;101006.94;;;18.66;55.09
48204;BME280;33994;50.998;5.864;2022-07-29T00:48:05;101006.19;;;18.63;55.96
48204;BME280;33994;50.998;5.864;2022-07-29T00:51:11;101005.78;;;18.52;57.30
48204;BME280;33994;50.998;5.864;2022-07-29T00:54:17;101009.91;;;18.38;58.43
48204;BME280;33994;50.998;5.864;2022-07-29T00:57:21;101004.94;;;18.31;59.04
48204;BME280;33994;50.998;5.864;2022-07-29T01:00:28;101005.25;;;18.24;59.82
48204;BME280;33994;50.998;5.864;2022-07-29T01:03:32;101011.94;;;18.13;60.91
48204;BME280;33994;50.998;5.864;2022-07-29T01:06:37;100992.34;;;17.96;61.80
48204;BME280;33994;50.998;5.864;2022-07-29T01:09:45;100996.75;;;17.75;63.03
48204;BME280;33994;50.998;5.864;2022-07-29T01:12:51;100981.38;;;17.63;63.59
48204;BME280;33994;50.998;5.864;2022-07-29T01:16:01;100979.97;;;17.55;63.86
48204;BME280;33994;50.998;5.864;2022-07-29T01:25:48;100980.53;;;17.41;65.92
48204;BME280;33994;50.998;5.864;2022-07-29T01:29:11;100981.63;;;17.35;66.55
48204;BME280;33994;50.998;5.864;2022-07-29T01:32:22;100989.88;;;17.27;67.42
48204;BME280;33994;50.998;5.864;2022-07-29T01:35:38;100983.13;;;17.20;67.46
48204;BME280;33994;50.998;5.864;2022-07-29T01:38:47;100980.81;;;17.13;66.95
48204;BME280;33994;50.998;5.864;2022-07-29T01:42:06;100979.25;;;17.07;67.21
48204;BME280;33994;50.998;5.864;2022-07-29T01:45:33;100982.75;;;17.08;66.89
48204;BME280;33994;50.998;5.864;2022-07-29T01:48:46;100970.66;;;17.02;66.90
48204;BME280;33994;50.998;5.864;2022-07-29T01:52:01;100978.56;;;17.02;67.69
48204;BME280;33994;50.998;5.864;2022-07-29T01:55:12;100962.31;;;16.89;67.62
48204;BME280;33994;50.998;5.864;2022-07-29T01:58:19;100960.69;;;16.87;67.51
48204;BME280;33994;50.998;5.864;2022-07-29T02:01:26;100961.47;;;16.89;67.53
48204;BME280;33994;50.998;5.864;2022-07-29T02:04:33;100965.09;;;16.86;67.62
48204;BME280;33994;50.998;5.864;2022-07-29T02:07:41;100967.56;;;16.91;67.56
48204;BME280;33994;50.998;5.864;2022-07-29T02:10:48;100957.00;;;16.91;67.84
48204;BME280;33994;50.998;5.864;2022-07-29T02:13:55;100964.09;;;16.89;67.81
48204;BME280;33994;50.998;5.864;2022-07-29T02:17:02;100967.75;;;16.86;67.73
48204;BME280;33994;50.998;5.864;2022-07-29T02:20:08;100968.66;;;16.85;67.91
48204;BME280;33994;50.998;5.864;2022-07-29T02:23:15;100964.28;;;16.84;67.74
48204;BME280;33994;50.998;5.864;2022-07-29T02:26:23;100964.09;;;16.89;67.52
48204;BME280;33994;50.998;5.864;2022-07-29T02:29:30;100967.59;;;16.89;67.25
48204;BME280;33994;50.998;5.864;2022-07-29T02:32:37;100981.41;;;16.97;66.79
48204;BME280;33994;50.998;5.864;2022-07-29T02:35:42;100983.78;;;17.03;66.50
48204;BME280;33994;50.998;5.864;2022-07-29T02:38:48;100987.53;;;16.98;66.55
48204;BME280;33994;50.998;5.864;2022-07-29T02:42:02;100985.94;;;16.94;66.78
48204;BME280;33994;50.998;5.864;2022-07-29T02:45:08;100973.81;;;16.88;66.93
48204;BME280;33994;50.998;5.864;2022-07-29T02:48:15;100968.34;;;16.93;67.21
48204;BME280;33994;50.998;5.864;2022-07-29T02:51:25;100961.53;;;16.87;67.36
48204;BME280;33994;50.998;5.864;2022-07-29T02:54:44;100962.81;;;16.77;68.32
48204;BME280;33994;50.998;5.864;2022-07-29T02:58:03;100970.19;;;16.67;68.88
48204;BME280;33994;50.998;5.864;2022-07-29T03:01:19;100969.16;;;16.71;69.19
48204;BME280;33994;50.998;5.864;2022-07-29T03:04:25;100970.88;;;16.72;69.11
48204;BME280;33994;50.998;5.864;2022-07-29T03:07:33;100975.16;;;16.76;69.11
48204;BME280;33994;50.998;5.864;2022-07-29T03:10:40;100968.94;;;16.77;68.80
48204;BME280;33994;50.998;5.864;2022-07-29T03:13:46;100971.72;;;16.73;69.65
48204;BME280;33994;50.998;5.864;2022-07-29T03:16:51;100970.88;;;16.72;68.80
48204;BME280;33994;50.998;5.864;2022-07-29T03:19:56;100978.91;;;16.69;68.72
48204;BME280;33994;50.998;5.864;2022-07-29T03:23:00;100977.88;;;16.73;68.74
48204;BME280;33994;50.998;5.864;2022-07-29T03:26:05;100982.97;;;16.80;68.24
48204;BME280;33994;50.998;5.864;2022-07-29T03:29:09;100985.50;;;16.83;68.09
48204;BME280;33994;50.998;5.864;2022-07-29T03:32:14;100988.19;;;16.81;68.05
48204;BME280;33994;50.998;5.864;2022-07-29T03:35:19;100987.31;;;16.81;68.35
48204;BME280;33994;50.998;5.864;2022-07-29T03:38:25;100989.00;;;16.83;68.64
48204;BME280;33994;50.998;5.864;2022-07-29T03:41:31;100993.28;;;16.86;69.29
48204;BME280;33994;50.998;5.864;2022-07-29T03:44:36;100988.13;;;16.83;69.53
48204;BME280;33994;50.998;5.864;2022-07-29T03:47:45;100975.91;;;16.80;70.34
48204;BME280;33994;50.998;5.864;2022-07-29T03:50:51;100992.66;;;16.79;70.35
48204;BME280;33994;50.998;5.864;2022-07-29T03:53:56;100980.50;;;16.73;71.17
48204;BME280;33994;50.998;5.864;2022-07-29T03:57:01;100992.88;;;16.73;71.46
48204;BME280;33994;50.998;5.864;2022-07-29T04:00:07;100990.19;;;16.74;71.83
48204;BME280;33994;50.998;5.864;2022-07-29T04:03:12;100984.91;;;16.74;71.87
48204;BME280;33994;50.998;5.864;2022-07-29T04:06:17;100992.94;;;16.71;71.83
48204;BME280;33994;50.998;5.864;2022-07-29T04:09:21;100992.47;;;16.60;72.30
48204;BME280;33994;50.998;5.864;2022-07-29T04:12:26;100973.75;;;16.43;73.25
48204;BME280;33994;50.998;5.864;2022-07-29T04:15:30;100963.28;;;16.40;73.72
48204;BME280;33994;50.998;5.864;2022-07-29T04:18:35;100962.50;;;16.38;73.77
48204;BME280;33994;50.998;5.864;2022-07-29T04:21:40;100964.47;;;16.33;73.92
48204;BME280;33994;50.998;5.864;2022-07-29T04:24:44;100970.97;;;16.22;74.35
48204;BME280;33994;50.998;5.864;2022-07-29T04:27:49;100978.34;;;16.13;74.50
48204;BME280;33994;50.998;5.864;2022-07-29T04:31:06;100985.31;;;16.15;74.71
48204;BME280;33994;50.998;5.864;2022-07-29T04:34:11;100994.66;;;16.24;74.88
48204;BME280;33994;50.998;5.864;2022-07-29T04:37:15;100997.03;;;16.32;74.94
48204;BME280;33994;50.998;5.864;2022-07-29T04:40:20;101005.69;;;16.35;75.34
48204;BME280;33994;50.998;5.864;2022-07-29T04:43:24;101002.19;;;16.35;75.78
48204;BME280;33994;50.998;5.864;2022-07-29T04:46:29;101000.47;;;16.34;76.38
48204;BME280;33994;50.998;5.864;2022-07-29T04:49:33;100994.34;;;16.33;76.43
48204;BME280;33994;50.998;5.864;2022-07-29T04:52:38;100981.09;;;16.35;76.75
48204;BME280;33994;50.998;5.864;2022-07-29T04:55:42;100985.56;;;16.33;77.14
48204;BME280;33994;50.998;5.864;2022-07-29T04:58:46;100983.97;;;16.28;77.17
48204;BME280;33994;50.998;5.864;2022-07-29T05:01:51;100985.72;;;16.28;77.57
48204;BME280;33994;50.998;5.864;2022-07-29T05:04:55;100977.03;;;16.24;77.84
48204;BME280;33994;50.998;5.864;2022-07-29T05:08:00;100969.25;;;16.21;78.12
48204;BME280;33994;50.998;5.864;2022-07-29T05:11:04;100977.00;;;16.26;78.80
48204;BME280;33994;50.998;5.864;2022-07-29T05:14:09;100990.13;;;16.27;78.66
48204;BME280;33994;50.998;5.864;2022-07-29T05:17:13;100988.31;;;16.29;78.28
48204;BME280;33994;50.998;5.864;2022-07-29T05:20:17;100989.06;;;16.33;78.17
48204;BME280;33994;50.998;5.864;2022-07-29T05:23:29;100987.38;;;16.30;77.65
48204;BME280;33994;50.998;5.864;2022-07-29T05:26:33;100997.66;;;16.38;77.32
48204;BME280;33994;50.998;5.864;2022-07-29T05:29:38;100997.31;;;16.47;76.93
48204;BME280;33994;50.998;5.864;2022-07-29T05:32:42;100993.72;;;16.50;76.66
48204;BME280;33994;50.998;5.864;2022-07-29T05:35:47;100998.16;;;16.49;76.60
48204;BME280;33994;50.998;5.864;2022-07-29T05:38:51;100999.81;;;16.52;76.43
48204;BME280;33994;50.998;5.864;2022-07-29T05:41:55;101005.59;;;16.62;75.85
48204;BME280;33994;50.998;5.864;2022-07-29T05:45:00;101013.25;;;16.69;75.57
48204;BME280;33994;50.998;5.864;2022-07-29T05:48:05;101014.84;;;16.75;74.77
48204;BME280;33994;50.998;5.864;2022-07-29T05:51:09;101017.22;;;16.81;74.58
48204;BME280;33994;50.998;5.864;2022-07-29T05:54:14;101021.53;;;16.84;74.62
48204;BME280;33994;50.998;5.864;2022-07-29T05:57:22;101024.13;;;16.85;74.43
48204;BME280;33994;50.998;5.864;2022-07-29T06:00:26;101019.69;;;16.86;74.34
48204;BME280;33994;50.998;5.864;2022-07-29T06:03:31;101023.16;;;16.88;74.81
48204;BME280;33994;50.998;5.864;2022-07-29T06:06:35;101032.00;;;16.87;75.18
48204;BME280;33994;50.998;5.864;2022-07-29T06:09:39;101024.19;;;16.84;75.52
48204;BME280;33994;50.998;5.864;2022-07-29T06:12:44;101032.91;;;16.86;75.62
48204;BME280;33994;50.998;5.864;2022-07-29T06:15:48;101039.06;;;16.86;75.45
48204;BME280;33994;50.998;5.864;2022-07-29T06:18:53;101032.13;;;16.84;75.52
48204;BME280;33994;50.998;5.864;2022-07-29T06:21:57;101039.06;;;16.86;75.40
48204;BME280;33994;50.998;5.864;2022-07-29T06:25:02;101040.72;;;16.89;75.04
48204;BME280;33994;50.998;5.864;2022-07-29T06:28:09;101051.38;;;16.86;74.95
48204;BME280;33994;50.998;5.864;2022-07-29T06:31:15;101049.63;;;16.86;75.15
48204;BME280;33994;50.998;5.864;2022-07-29T06:34:20;101056.56;;;16.89;74.84
48204;BME280;33994;50.998;5.864;2022-07-29T06:37:24;101046.72;;;16.94;74.90
48204;BME280;33994;50.998;5.864;2022-07-29T06:40:29;101053.63;;;16.96;74.63
48204;BME280;33994;50.998;5.864;2022-07-29T06:43:51;101057.03;;;17.00;74.42
48204;BME280;33994;50.998;5.864;2022-07-29T06:46:55;101059.56;;;17.03;74.47
48204;BME280;33994;50.998;5.864;2022-07-29T06:50:00;101062.09;;;17.06;74.12
48204;BME280;33994;50.998;5.864;2022-07-29T06:53:04;101051.50;;;17.06;74.05
48204;BME280;33994;50.998;5.864;2022-07-29T06:56:09;101060.22;;;17.08;73.95
48204;BME280;33994;50.998;5.864;2022-07-29T06:59:15;101069.91;;;17.09;73.44
48204;BME280;33994;50.998;5.864;2022-07-29T07:02:20;101069.53;;;17.18;73.47
48204;BME280;33994;50.998;5.864;2022-07-29T07:05:24;101068.56;;;17.43;73.16
48204;BME280;33994;50.998;5.864;2022-07-29T07:08:29;101071.97;;;17.68;72.66
48204;BME280;33994;50.998;5.864;2022-07-29T07:11:33;101073.03;;;17.86;71.79
48204;BME280;33994;50.998;5.864;2022-07-29T07:14:38;101076.44;;;18.10;70.86
48204;BME280;33994;50.998;5.864;2022-07-29T07:17:42;101081.06;;;18.26;69.50
48204;BME280;33994;50.998;5.864;2022-07-29T07:20:47;101080.16;;;18.47;68.20
48204;BME280;33994;50.998;5.864;2022-07-29T07:23:51;101066.19;;;18.64;67.70
48204;BME280;33994;50.998;5.864;2022-07-29T07:26:55;101080.09;;;18.69;67.28
48204;BME280;33994;50.998;5.864;2022-07-29T07:30:01;101082.41;;;18.77;67.57
48204;BME280;33994;50.998;5.864;2022-07-29T07:33:05;101090.31;;;18.97;67.60
48204;BME280;33994;50.998;5.864;2022-07-29T07:36:09;101085.50;;;19.05;67.47
48204;BME280;33994;50.998;5.864;2022-07-29T07:39:14;101086.69;;;19.18;66.97
48204;BME280;33994;50.998;5.864;2022-07-29T07:42:19;101092.31;;;19.30;66.66
48204;BME280;33994;50.998;5.864;2022-07-29T07:45:24;101084.88;;;19.38;66.26
48204;BME280;33994;50.998;5.864;2022-07-29T07:48:28;101094.09;;;19.48;65.88
48204;BME280;33994;50.998;5.864;2022-07-29T07:51:34;101101.94;;;19.51;65.21
48204;BME280;33994;50.998;5.864;2022-07-29T07:54:38;101096.03;;;19.44;64.78
48204;BME280;33994;50.998;5.864;2022-07-29T07:57:43;101091.44;;;19.48;64.26
48204;BME280;33994;50.998;5.864;2022-07-29T08:00:49;101098.22;;;19.55;63.96
48204;BME280;33994;50.998;5.864;2022-07-29T08:03:54;101088.88;;;19.47;64.34
48204;BME280;33994;50.998;5.864;2022-07-29T08:06:59;101097.91;;;19.42;64.14
48204;BME280;33994;50.998;5.864;2022-07-29T08:10:04;101090.94;;;19.40;64.50
48204;BME280;33994;50.998;5.864;2022-07-29T08:13:09;101086.72;;;19.36;64.39
48204;BME280;33994;50.998;5.864;2022-07-29T08:16:14;101089.28;;;19.37;64.51
48204;BME280;33994;50.998;5.864;2022-07-29T08:19:19;101098.50;;;19.30;64.72
48204;BME280;33994;50.998;5.864;2022-07-29T08:22:23;101091.03;;;19.19;65.21
48204;BME280;33994;50.998;5.864;2022-07-29T08:25:28;101103.44;;;19.19;65.60
48204;BME280;33994;50.998;5.864;2022-07-29T08:28:32;101101.66;;;19.19;66.03
48204;BME280;33994;50.998;5.864;2022-07-29T08:31:37;101107.34;;;19.10;66.11
48204;BME280;33994;50.998;5.864;2022-07-29T08:34:42;101109.38;;;19.05;66.21
48204;BME280;33994;50.998;5.864;2022-07-29T08:37:49;101106.81;;;19.04;66.15
48204;BME280;33994;50.998;5.864;2022-07-29T08:40:54;101107.78;;;19.01;66.56
48204;BME280;33994;50.998;5.864;2022-07-29T08:43:58;101111.50;;;18.97;66.71
48204;BME280;33994;50.998;5.864;2022-07-29T08:47:03;101113.22;;;18.98;66.83
48204;BME280;33994;50.998;5.864;2022-07-29T08:50:08;101116.88;;;18.95;66.49
48204;BME280;33994;50.998;5.864;2022-07-29T08:53:15;101113.78;;;18.86;67.27
48204;BME280;33994;50.998;5.864;2022-07-29T08:56:20;101115.78;;;18.81;67.48
48204;BME280;33994;50.998;5.864;2022-07-29T08:59:26;101111.22;;;18.84;67.47
48204;BME280;33994;50.998;5.864;2022-07-29T09:02:39;101117.22;;;18.88;67.54
48204;BME280;33994;50.998;5.864;2022-07-29T09:05:47;101126.81;;;18.90;67.74
48204;BME280;33994;50.998;5.864;2022-07-29T09:08:51;101133.56;;;18.98;67.23
48204;BME280;33994;50.998;5.864;2022-07-29T09:11:56;101116.81;;;18.97;67.07
48204;BME280;33994;50.998;5.864;2022-07-29T09:15:00;101123.31;;;18.90;67.35
48204;BME280;33994;50.998;5.864;2022-07-29T09:18:04;101126.91;;;18.89;67.53
48204;BME280;33994;50.998;5.864;2022-07-29T09:21:11;101115.56;;;18.85;67.72
48204;BME280;33994;50.998;5.864;2022-07-29T09:27:37;101118.81;;;18.92;67.64
48204;BME280;33994;50.998;5.864;2022-07-29T09:30:52;101122.63;;;19.05;68.00
48204;BME280;33994;50.998;5.864;2022-07-29T09:33:58;101130.72;;;19.21;67.05
48204;BME280;33994;50.998;5.864;2022-07-29T09:37:03;101121.69;;;19.25;66.47
48204;BME280;33994;50.998;5.864;2022-07-29T09:40:19;101132.25;;;19.27;65.92
48204;BME280;33994;50.998;5.864;2022-07-29T09:43:24;101137.38;;;19.30;65.74
48204;BME280;33994;50.998;5.864;2022-07-29T09:46:28;101148.53;;;19.38;65.42
48204;BME280;33994;50.998;5.864;2022-07-29T09:49:34;101144.06;;;19.38;64.83
48204;BME280;33994;50.998;5.864;2022-07-29T09:52:47;101139.53;;;19.40;63.99
48204;BME280;33994;50.998;5.864;2022-07-29T09:55:52;101143.78;;;19.44;64.11
48204;BME280;33994;50.998;5.864;2022-07-29T09:59:07;101142.38;;;19.56;63.18
48204;BME280;33994;50.998;5.864;2022-07-29T10:02:12;101138.44;;;19.65;63.07
48204;BME280;33994;50.998;5.864;2022-07-29T10:05:23;101142.44;;;19.74;62.96
48204;BME280;33994;50.998;5.864;2022-07-29T10:08:27;101142.69;;;19.86;62.67
48204;BME280;33994;50.998;5.864;2022-07-29T10:11:31;101125.38;;;19.97;62.40
48204;BME280;33994;50.998;5.864;2022-07-29T10:14:37;101121.72;;;19.99;62.35
48204;BME280;33994;50.998;5.864;2022-07-29T10:17:42;101127.66;;;20.04;62.28
48204;BME280;33994;50.998;5.864;2022-07-29T10:20:47;101140.66;;;20.10;62.16
48204;BME280;33994;50.998;5.864;2022-07-29T10:23:52;101135.25;;;20.12;62.43
48204;BME280;33994;50.998;5.864;2022-07-29T10:27:01;101127.38;;;20.10;62.70
48204;BME280;33994;50.998;5.864;2022-07-29T10:30:06;101129.94;;;20.12;63.17
48204;BME280;33994;50.998;5.864;2022-07-29T10:33:28;101137.50;;;20.20;63.26
48204;BME280;33994;50.998;5.864;2022-07-29T10:36:40;101120.19;;;20.30;63.32
48204;BME280;33994;50.998;5.864;2022-07-29T10:43:41;101117.41;;;20.50;62.61
48204;BME280;33994;50.998;5.864;2022-07-29T10:46:46;101114.75;;;20.50;62.94
48204;BME280;33994;50.998;5.864;2022-07-29T10:49:59;101122.06;;;20.62;63.18
48204;BME280;33994;50.998;5.864;2022-07-29T10:53:03;101120.09;;;20.66;63.14
48204;BME280;33994;50.998;5.864;2022-07-29T10:56:23;101120.56;;;20.74;63.36
48204;BME280;33994;50.998;5.864;2022-07-29T10:59:28;101125.66;;;20.79;63.28
48204;BME280;33994;50.998;5.864;2022-07-29T11:05:52;101127.50;;;20.94;63.56
48204;BME280;33994;50.998;5.864;2022-07-29T11:09:17;101127.31;;;20.97;63.54
48204;BME280;33994;50.998;5.864;2022-07-29T11:15:56;101121.06;;;20.98;63.29
48204;BME280;33994;50.998;5.864;2022-07-29T11:22:34;101117.13;;;21.05;62.61
48204;BME280;33994;50.998;5.864;2022-07-29T11:25:39;101125.19;;;21.04;62.96
48204;BME280;33994;50.998;5.864;2022-07-29T11:32:12;101121.56;;;21.05;62.71
48204;BME280;33994;50.998;5.864;2022-07-29T11:35:22;101116.03;;;21.09;62.28
48204;BME280;33994;50.998;5.864;2022-07-29T11:38:28;101118.50;;;21.12;62.22
48204;BME280;33994;50.998;5.864;2022-07-29T11:41:32;101109.78;;;21.10;62.07
48204;BME280;33994;50.998;5.864;2022-07-29T11:48:03;101112.31;;;21.13;61.75
48204;BME280;33994;50.998;5.864;2022-07-29T11:51:10;101119.16;;;21.18;61.33
48204;BME280;33994;50.998;5.864;2022-07-29T11:54:23;101112.91;;;21.19;61.11
48204;BME280;33994;50.998;5.864;2022-07-29T11:57:29;101121.63;;;21.21;61.46
48204;BME280;33994;50.998;5.864;2022-07-29T12:00:36;101111.78;;;21.23;61.39
48204;BME280;33994;50.998;5.864;2022-07-29T12:03:41;101118.47;;;21.30;61.16
48204;BME280;33994;50.998;5.864;2022-07-29T12:06:53;101119.06;;;21.35;60.94
48204;BME280;33994;50.998;5.864;2022-07-29T12:09:58;101117.09;;;21.38;60.76
48204;BME280;33994;50.998;5.864;2022-07-29T12:13:03;101116.16;;;21.39;60.59
48204;BME280;33994;50.998;5.864;2022-07-29T12:16:07;101119.50;;;21.43;60.78
48204;BME280;33994;50.998;5.864;2022-07-29T12:19:11;101114.19;;;21.43;60.56
48204;BME280;33994;50.998;5.864;2022-07-29T12:22:27;101119.19;;;21.49;60.28
48204;BME280;33994;50.998;5.864;2022-07-29T12:25:33;101109.06;;;21.56;59.70
48204;BME280;33994;50.998;5.864;2022-07-29T12:28:38;101108.69;;;21.62;59.63
48204;BME280;33994;50.998;5.864;2022-07-29T12:31:43;101112.19;;;21.62;59.15
48204;BME280;33994;50.998;5.864;2022-07-29T12:34:50;101112.03;;;21.66;58.70
48204;BME280;33994;50.998;5.864;2022-07-29T12:37:54;101113.56;;;21.70;58.26
48204;BME280;33994;50.998;5.864;2022-07-29T12:40:59;101107.91;;;21.76;58.55
48204;BME280;33994;50.998;5.864;2022-07-29T12:44:03;101105.66;;;21.84;58.73
48204;BME280;33994;50.998;5.864;2022-07-29T12:47:07;101105.25;;;21.92;58.41
48204;BME280;33994;50.998;5.864;2022-07-29T12:50:15;101098.97;;;21.93;57.73
48204;BME280;33994;50.998;5.864;2022-07-29T12:53:21;101099.75;;;21.95;58.03
48204;BME280;33994;50.998;5.864;2022-07-29T12:56:25;101099.47;;;21.99;57.87
48204;BME280;33994;50.998;5.864;2022-07-29T12:59:29;101102.72;;;22.04;57.98
48204;BME280;33994;50.998;5.864;2022-07-29T13:02:35;101097.22;;;22.07;57.75
48204;BME280;33994;50.998;5.864;2022-07-29T13:05:42;101093.94;;;22.18;55.99
48204;BME280;33994;50.998;5.864;2022-07-29T13:09:17;101092.06;;;22.20;52.67
48204;BME280;33994;50.998;5.864;2022-07-29T13:12:22;101095.28;;;22.25;53.47
48204;BME280;33994;50.998;5.864;2022-07-29T13:15:26;101096.31;;;22.23;53.07
48204;BME280;33994;50.998;5.864;2022-07-29T13:18:33;101095.47;;;22.22;53.64
48204;BME280;33994;50.998;5.864;2022-07-29T13:21:39;101102.50;;;22.23;54.01
48204;BME280;33994;50.998;5.864;2022-07-29T13:25:04;101097.84;;;22.27;53.36
48204;BME280;33994;50.998;5.864;2022-07-29T13:28:09;101095.41;;;22.38;52.25
48204;BME280;33994;50.998;5.864;2022-07-29T13:31:14;101090.22;;;22.51;50.92
48204;BME280;33994;50.998;5.864;2022-07-29T13:34:19;101093.81;;;22.50;51.35
48204;BME280;33994;50.998;5.864;2022-07-29T13:37:25;101094.66;;;22.50;51.06
48204;BME280;33994;50.998;5.864;2022-07-29T13:40:32;101085.91;;;22.48;50.95
48204;BME280;33994;50.998;5.864;2022-07-29T13:43:38;101082.97;;;22.53;50.67
48204;BME280;33994;50.998;5.864;2022-07-29T13:46:42;101085.44;;;22.56;50.71
48204;BME280;33994;50.998;5.864;2022-07-29T13:49:48;101079.09;;;22.58;50.79
48204;BME280;33994;50.998;5.864;2022-07-29T13:52:52;101084.81;;;22.67;51.15
48204;BME280;33994;50.998;5.864;2022-07-29T13:55:57;101085.50;;;22.70;50.76
48204;BME280;33994;50.998;5.864;2022-07-29T13:59:02;101090.53;;;22.75;50.84
48204;BME280;33994;50.998;5.864;2022-07-29T14:02:06;101084.06;;;22.79;50.78
48204;BME280;33994;50.998;5.864;2022-07-29T14:05:11;101083.88;;;22.82;50.62
48204;BME280;33994;50.998;5.864;2022-07-29T14:08:15;101067.88;;;22.82;50.79
48204;BME280;33994;50.998;5.864;2022-07-29T14:11:19;101074.91;;;22.83;50.78
48204;BME280;33994;50.998;5.864;2022-07-29T14:14:24;101077.22;;;22.89;51.43
48204;BME280;33994;50.998;5.864;2022-07-29T14:17:28;101073.59;;;22.90;51.34
48204;BME280;33994;50.998;5.864;2022-07-29T14:20:34;101072.81;;;22.88;50.83
48204;BME280;33994;50.998;5.864;2022-07-29T14:23:39;101084.53;;;22.86;50.61
48204;BME280;33994;50.998;5.864;2022-07-29T14:26:44;101074.81;;;22.84;51.08
48204;BME280;33994;50.998;5.864;2022-07-29T14:29:48;101076.44;;;22.87;50.81
48204;BME280;33994;50.998;5.864;2022-07-29T14:32:53;101074.56;;;22.89;50.40
48204;BME280;33994;50.998;5.864;2022-07-29T14:35:57;101074.31;;;22.92;50.69
48204;BME280;33994;50.998;5.864;2022-07-29T14:39:02;101083.78;;;22.98;51.36
48204;BME280;33994;50.998;5.864;2022-07-29T14:42:06;101082.50;;;23.03;51.29
48204;BME280;33994;50.998;5.864;2022-07-29T14:45:10;101088.81;;;23.17;51.06
48204;BME280;33994;50.998;5.864;2022-07-29T14:48:15;101075.81;;;23.25;51.07
48204;BME280;33994;50.998;5.864;2022-07-29T14:51:20;101080.97;;;23.28;50.40
48204;BME280;33994;50.998;5.864;2022-07-29T14:54:24;101074.56;;;23.30;50.39
48204;BME280;33994;50.998;5.864;2022-07-29T14:57:31;101069.88;;;23.34;50.51
48204;BME280;33994;50.998;5.864;2022-07-29T15:00:36;101066.34;;;23.33;50.81
48204;BME280;33994;50.998;5.864;2022-07-29T15:03:40;101077.03;;;23.33;50.82
48204;BME280;33994;50.998;5.864;2022-07-29T15:06:45;101072.47;;;23.36;50.90
48204;BME280;33994;50.998;5.864;2022-07-29T15:09:48;101071.50;;;23.37;50.51
48204;BME280;33994;50.998;5.864;2022-07-29T15:12:54;101077.16;;;23.32;50.64
48204;BME280;33994;50.998;5.864;2022-07-29T15:15:58;101074.13;;;23.24;50.53
48204;BME280;33994;50.998;5.864;2022-07-29T15:19:03;101080.59;;;23.20;50.68
48204;BME280;33994;50.998;5.864;2022-07-29T15:22:11;101080.69;;;23.18;50.70
48204;BME280;33994;50.998;5.864;2022-07-29T15:25:15;101077.94;;;23.20;50.57
48204;BME280;33994;50.998;5.864;2022-07-29T15:28:23;101079.84;;;23.18;50.67
48204;BME280;33994;50.998;5.864;2022-07-29T15:31:28;101077.94;;;23.20;50.78
48204;BME280;33994;50.998;5.864;2022-07-29T15:34:32;101072.59;;;23.20;50.74
48204;BME280;33994;50.998;5.864;2022-07-29T15:37:40;101067.03;;;23.23;50.13
48204;BME280;33994;50.998;5.864;2022-07-29T15:40:44;101074.19;;;23.22;49.97
48204;BME280;33994;50.998;5.864;2022-07-29T15:43:49;101070.69;;;23.22;49.74
48204;BME280;33994;50.998;5.864;2022-07-29T15:46:53;101076.69;;;23.25;49.65
48204;BME280;33994;50.998;5.864;2022-07-29T15:50:08;101073.50;;;23.33;48.58
48204;BME280;33994;50.998;5.864;2022-07-29T15:53:17;101076.00;;;23.36;48.32
48204;BME280;33994;50.998;5.864;2022-07-29T15:56:22;101080.38;;;23.37;48.32
48204;BME280;33994;50.998;5.864;2022-07-29T15:59:26;101075.22;;;23.34;48.43
48204;BME280;33994;50.998;5.864;2022-07-29T16:02:31;101075.03;;;23.37;48.84
48204;BME280;33994;50.998;5.864;2022-07-29T16:05:35;101074.88;;;23.40;49.04
48204;BME280;33994;50.998;5.864;2022-07-29T16:08:40;101070.19;;;23.44;48.78
48204;BME280;33994;50.998;5.864;2022-07-29T16:11:45;101072.97;;;23.42;48.82
48204;BME280;33994;50.998;5.864;2022-07-29T16:14:52;101070.19;;;23.44;48.77
48204;BME280;33994;50.998;5.864;2022-07-29T16:17:57;101071.03;;;23.44;48.87
48204;BME280;33994;50.998;5.864;2022-07-29T16:21:01;101080.00;;;23.43;49.04
48204;BME280;33994;50.998;5.864;2022-07-29T16:24:06;101077.53;;;23.40;49.08
48204;BME280;33994;50.998;5.864;2022-07-29T16:27:13;101078.50;;;23.39;49.17
48204;BME280;33994;50.998;5.864;2022-07-29T16:30:18;101075.84;;;23.39;48.25
48204;BME280;33994;50.998;5.864;2022-07-29T16:33:22;101082.88;;;23.40;47.82
48204;BME280;33994;50.998;5.864;2022-07-29T16:36:26;101079.34;;;23.40;47.53
48204;BME280;33994;50.998;5.864;2022-07-29T16:39:31;101077.34;;;23.43;47.23
48204;BME280;33994;50.998;5.864;2022-07-29T16:42:35;101079.91;;;23.45;47.14
48204;BME280;33994;50.998;5.864;2022-07-29T16:45:40;101072.84;;;23.44;47.00